sensor_id;sensor_type;location;lat;lon;timestamp;noise_LAeq;noise_LA_min;noise_LA_max;noise_LA01;noise_LA95
69614;Laerm;57159;52.472;4.750;2023-03-23T00:00:05;32.37;31.36;33.21;;
69614;Laerm;57159;52.472;4.750;2023-03-23T00:00:16;32.43;31.53;33.24;;
69614;Laerm;57159;52.472;4.750;2023-03-23T00:00:27;32.36;31.55;33.31;;
69614;Laerm;57159;52.472;4.750;2023-03-23T00:00:37;32.36;31.37;33.14;;
69614;Laerm;57159;52.472;4.750;2023-03-23T00:00:49;32.41;31.45;33.35;;
69614;Laerm;57159;52.472;4.750;2023-03-23T00:00:59;32.41;31.57;33.17;;
69614;Laerm;57159;52.472;4.750;2023-03-23T00:01:11;32.40;31.54;33.49;;
69614;Laerm;57159;52.472;4.750;2023-03-23T00:01:23;32.41;31.38;33.46;;
69614;Laerm;57159;52.472;4.750;2023-03-23T00:01:36;32.41;31.28;33.85;;
69614;Laerm;57159;52.472;4.750;2023-03-23T00:01:47;32.38;31.41;33.19;;
69614;Laerm;57159;52.472;4.750;2023-03-23T00:01:59;32.39;31.20;33.20;;
69614;Laerm;57159;52.472;4.750;2023-03-23T00:02:09;32.36;31.37;33.38;;
69614;Laerm;57159;52.472;4.750;2023-03-23T00:02:24;32.38;31.40;33.30;;
69614;Laerm;57159;52.472;4.750;2023-03-23T00:02:35;32.33;31.39;33.30;;
69614;Laerm;57159;52.472;4.750;2023-03-23T00:02:45;32.37;31.44;33.29;;
69614;Laerm;57159;52.472;4.750;2023-03-23T00:02:56;32.36;31.32;33.16;;
69614;Laerm;57159;52.472;4.750;2023-03-23T00:03:06;32.39;31.52;33.32;;
69614;Laerm;57159;52.472;4.750;2023-03-23T00:03:16;32.41;31.14;33.46;;
69614;Laerm;57159;52.472;4.750;2023-03-23T00:03:27;32.42;31.22;33.74;;
69614;Laerm;57159;52.472;4.750;2023-03-23T00:03:40;32.40;31.35;33.47;;
69614;Laerm;57159;52.472;4.750;2023-03-23T00:03:51;32.40;31.32;33.48;;
69614;Laerm;57159;52.472;4.750;2023-03-23T00:04:02;32.40;31.29;33.46;;
69614;Laerm;57159;52.472;4.750;2023-03-23T00:04:12;32.38;31.47;33.37;;
69614;Laerm;57159;52.472;4.750;2023-03-23T00:04:23;32.37;31.17;33.27;;
69614;Laerm;57159;52.472;4.750;2023-03-23T00:04:37;32.38;31.33;33.20;;
69614;Laerm;57159;52.472;4.750;2023-03-23T00:04:47;32.35;31.43;33.78;;
69614;Laerm;57159;52.472;4.750;2023-03-23T00:04:59;32.36;31.60;33.63;;
69614;Laerm;57159;52.472;4.750;2023-03-23T00:05:10;32.36;31.19;33.19;;
69614;Laerm;57159;52.472;4.750;2023-03-23T00:05:21;32.38;31.50;33.37;;
69614;Laerm;57159;52.472;4.750;2023-03-23T00:05:31;32.38;31.41;33.30;;
69614;Laerm;57159;52.472;4.750;2023-03-23T00:05:41;32.38;31.35;33.56;;
69614;Laerm;57159;52.472;4.750;2023-03-23T00:06:00;32.37;31.37;33.29;;
69614;Laerm;57159;52.472;4.750;2023-03-23T00:06:14;32.41;31.07;33.64;;
69614;Laerm;57159;52.472;4.750;2023-03-23T00:06:28;32.41;31.30;33.32;;
69614;Laerm;57159;52.472;4.750;2023-03-23T00:06:43;32.38;31.64;33.23;;
69614;Laerm;57159;52.472;4.750;2023-03-23T00:06:55;32.40;31.50;33.16;;
69614;Laerm;57159;52.472;4.750;2023-03-23T00:07:05;32.36;31.62;33.45;;
69614;Laerm;57159;52.472;4.750;2023-03-23T00:07:16;32.35;31.18;33.35;;
69614;Laerm;57159;52.472;4.750;2023-03-23T00:07:31;32.36;31.51;33.15;;
69614;Laerm;57159;52.472;4.750;2023-03-23T00:07:43;32.40;31.29;33.17;;
69614;Laerm;57159;52.472;4.750;2023-03-23T00:07:55;32.37;31.44;33.37;;
69614;Laerm;57159;52.472;4.750;2023-03-23T00:08:06;32.36;31.43;33.18;;
69614;Laerm;57159;52.472;4.750;2023-03-23T00:08:21;32.36;31.19;33.20;;
69614;Laerm;57159;52.472;4.750;2023-03-23T00:08:32;32.36;31.36;33.33;;
69614;Laerm;57159;52.472;4.750;2023-03-23T00:08:47;32.37;31.53;33.29;;
69614;Laerm;57159;52.472;4.750;2023-03-23T00:08:57;32.35;31.16;33.25;;
69614;Laerm;57159;52.472;4.750;2023-03-23T00:09:09;32.41;31.31;33.33;;
69614;Laerm;57159;52.472;4.750;2023-03-23T00:09:24;32.39;31.36;33.23;;
69614;Laerm;57159;52.472;4.750;2023-03-23T00:09:34;32.37;31.19;33.01;;
69614;Laerm;57159;52.472;4.750;2023-03-23T00:09:50;32.40;31.30;33.34;;
69614;Laerm;57159;52.472;4.750;2023-03-23T00:10:04;32.36;31.21;33.24;;
69614;Laerm;57159;52.472;4.750;2023-03-23T00:10:14;32.38;31.49;33.33;;
69614;Laerm;57159;52.472;4.750;2023-03-23T00:10:25;32.38;31.42;33.51;;
69614;Laerm;57159;52.472;4.750;2023-03-23T00:10:36;32.38;31.50;33.16;;
69614;Laerm;57159;52.472;4.750;2023-03-23T00:10:50;32.38;31.44;33.32;;
69614;Laerm;57159;52.472;4.750;2023-03-23T00:11:06;32.36;31.30;33.29;;
69614;Laerm;57159;52.472;4.750;2023-03-23T00:11:21;32.34;31.58;33.23;;
69614;Laerm;57159;52.472;4.750;2023-03-23T00:11:32;32.39;31.44;33.37;;
69614;Laerm;57159;52.472;4.750;2023-03-23T00:11:42;32.35;31.60;33.76;;
69614;Laerm;57159;52.472;4.750;2023-03-23T00:11:52;32.39;31.50;33.29;;
69614;Laerm;57159;52.472;4.750;2023-03-23T00:12:07;32.40;31.51;33.50;;
69614;Laerm;57159;52.472;4.750;2023-03-23T00:12:18;32.38;31.48;33.56;;
69614;Laerm;57159;52.472;4.750;2023-03-23T00:12:29;32.38;31.29;33.11;;
69614;Laerm;57159;52.472;4.750;2023-03-23T00:12:45;32.39;31.25;33.63;;
69614;Laerm;57159;52.472;4.750;2023-03-23T00:12:59;32.38;31.25;33.30;;
69614;Laerm;57159;52.472;4.750;2023-03-23T00:13:12;32.38;31.38;33.38;;
69614;Laerm;57159;52.472;4.750;2023-03-23T00:13:23;32.39;31.51;33.22;;
69614;Laerm;57159;52.472;4.750;2023-03-23T00:13:34;32.38;31.34;33.21;;
69614;Laerm;57159;52.472;4.750;2023-03-23T00:13:45;32.39;31.48;33.22;;
69614;Laerm;57159;52.472;4.750;2023-03-23T00:13:56;32.37;31.41;33.17;;
69614;Laerm;57159;52.472;4.750;2023-03-23T00:14:08;32.36;31.35;33.36;;
69614;Laerm;57159;52.472;4.750;2023-03-23T00:14:23;32.38;31.22;33.24;;
69614;Laerm;57159;52.472;4.750;2023-03-23T00:14:34;32.39;31.12;33.22;;
69614;Laerm;57159;52.472;4.750;2023-03-23T00:14:51;32.38;31.15;33.45;;
69614;Laerm;57159;52.472;4.750;2023-03-23T00:15:04;32.37;31.52;33.35;;
69614;Laerm;57159;52.472;4.750;2023-03-23T00:15:15;32.40;31.44;33.41;;
69614;Laerm;57159;52.472;4.750;2023-03-23T00:15:26;32.40;31.45;33.40;;
69614;Laerm;57159;52.472;4.750;2023-03-23T00:15:37;32.41;31.12;33.11;;
69614;Laerm;57159;52.472;4.750;2023-03-23T00:15:51;32.39;31.54;33.46;;
69614;Laerm;57159;52.472;4.750;2023-03-23T00:16:02;32.40;31.36;33.31;;
69614;Laerm;57159;52.472;4.750;2023-03-23T00:16:13;32.39;31.48;33.31;;
69614;Laerm;57159;52.472;4.750;2023-03-23T00:16:30;32.41;31.50;33.65;;
69614;Laerm;57159;52.472;4.750;2023-03-23T00:16:42;32.40;31.40;33.40;;
69614;Laerm;57159;52.472;4.750;2023-03-23T00:16:52;32.41;31.58;33.49;;
69614;Laerm;57159;52.472;4.750;2023-03-23T00:17:03;32.42;31.47;33.16;;
69614;Laerm;57159;52.472;4.750;2023-03-23T00:17:13;32.36;31.36;33.18;;
69614;Laerm;57159;52.472;4.750;2023-03-23T00:17:24;32.40;31.50;33.30;;
69614;Laerm;57159;52.472;4.750;2023-03-23T00:17:35;32.38;31.37;33.31;;
69614;Laerm;57159;52.472;4.750;2023-03-23T00:17:45;32.41;31.48;33.46;;
69614;Laerm;57159;52.472;4.750;2023-03-23T00:17:56;32.42;31.62;33.36;;
69614;Laerm;57159;52.472;4.750;2023-03-23T00:18:12;32.35;31.29;33.17;;
69614;Laerm;57159;52.472;4.750;2023-03-23T00:18:30;32.40;31.49;33.39;;
69614;Laerm;57159;52.472;4.750;2023-03-23T00:18:41;32.41;31.35;33.42;;
69614;Laerm;57159;52.472;4.750;2023-03-23T00:18:51;32.38;31.64;33.24;;
69614;Laerm;57159;52.472;4.750;2023-03-23T00:19:05;32.38;31.50;33.13;;
69614;Laerm;57159;52.472;4.750;2023-03-23T00:19:16;32.40;31.24;33.48;;
69614;Laerm;57159;52.472;4.750;2023-03-23T00:19:29;32.38;31.27;33.61;;
69614;Laerm;57159;52.472;4.750;2023-03-23T00:19:39;32.36;31.10;33.39;;
69614;Laerm;57159;52.472;4.750;2023-03-23T00:19:56;32.39;31.55;33.37;;
69614;Laerm;57159;52.472;4.750;2023-03-23T00:20:06;32.34;31.19;33.33;;
69614;Laerm;57159;52.472;4.750;2023-03-23T00:20:18;32.35;31.49;33.45;;
69614;Laerm;57159;52.472;4.750;2023-03-23T00:20:28;32.34;31.22;33.15;;
69614;Laerm;57159;52.472;4.750;2023-03-23T00:20:51;32.36;31.29;33.44;;
69614;Laerm;57159;52.472;4.750;2023-03-23T00:21:02;32.35;31.45;33.23;;
69614;Laerm;57159;52.472;4.750;2023-03-23T00:21:14;32.37;31.36;33.33;;
69614;Laerm;57159;52.472;4.750;2023-03-23T00:21:29;32.40;31.25;33.53;;
69614;Laerm;57159;52.472;4.750;2023-03-23T00:21:45;32.36;31.28;33.24;;
69614;Laerm;57159;52.472;4.750;2023-03-23T00:21:59;32.35;31.40;33.27;;
69614;Laerm;57159;52.472;4.750;2023-03-23T00:22:13;32.40;31.48;33.26;;
69614;Laerm;57159;52.472;4.750;2023-03-23T00:22:24;32.38;31.18;33.21;;
69614;Laerm;57159;52.472;4.750;2023-03-23T00:22:35;32.37;31.44;33.33;;
69614;Laerm;57159;52.472;4.750;2023-03-23T00:22:47;32.37;31.19;33.25;;
69614;Laerm;57159;52.472;4.750;2023-03-23T00:22:58;32.39;31.41;33.37;;
69614;Laerm;57159;52.472;4.750;2023-03-23T00:23:10;32.43;31.12;33.28;;
69614;Laerm;57159;52.472;4.750;2023-03-23T00:23:21;32.41;31.35;33.15;;
69614;Laerm;57159;52.472;4.750;2023-03-23T00:23:32;32.46;31.20;34.47;;
69614;Laerm;57159;52.472;4.750;2023-03-23T00:23:42;32.43;31.37;33.30;;
69614;Laerm;57159;52.472;4.750;2023-03-23T00:23:54;32.41;31.44;33.25;;
69614;Laerm;57159;52.472;4.750;2023-03-23T00:24:06;32.44;31.39;33.40;;
69614;Laerm;57159;52.472;4.750;2023-03-23T00:24:17;32.40;31.55;33.38;;
69614;Laerm;57159;52.472;4.750;2023-03-23T00:24:28;32.40;31.58;33.47;;
69614;Laerm;57159;52.472;4.750;2023-03-23T00:24:39;32.41;31.48;33.34;;
69614;Laerm;57159;52.472;4.750;2023-03-23T00:24:49;32.39;31.34;33.22;;
69614;Laerm;57159;52.472;4.750;2023-03-23T00:25:03;32.37;31.39;33.34;;
69614;Laerm;57159;52.472;4.750;2023-03-23T00:25:13;32.48;31.50;33.95;;
69614;Laerm;57159;52.472;4.750;2023-03-23T00:25:26;32.48;31.62;33.68;;
69614;Laerm;57159;52.472;4.750;2023-03-23T00:25:37;32.43;31.37;33.35;;
69614;Laerm;57159;52.472;4.750;2023-03-23T00:25:47;32.42;31.41;33.33;;
69614;Laerm;57159;52.472;4.750;2023-03-23T00:25:58;32.43;31.58;33.24;;
69614;Laerm;57159;52.472;4.750;2023-03-23T00:26:09;32.37;31.33;33.21;;
69614;Laerm;57159;52.472;4.750;2023-03-23T00:26:19;32.45;31.58;33.60;;
69614;Laerm;57159;52.472;4.750;2023-03-23T00:26:29;32.41;31.45;33.28;;
69614;Laerm;57159;52.472;4.750;2023-03-23T00:26:44;32.41;31.51;33.48;;
69614;Laerm;57159;52.472;4.750;2023-03-23T00:26:55;32.41;31.57;33.37;;
69614;Laerm;57159;52.472;4.750;2023-03-23T00:27:08;32.44;31.54;33.64;;
69614;Laerm;57159;52.472;4.750;2023-03-23T00:27:22;32.36;31.41;33.25;;
69614;Laerm;57159;52.472;4.750;2023-03-23T00:27:33;32.41;31.43;33.45;;
69614;Laerm;57159;52.472;4.750;2023-03-23T00:27:44;32.39;31.46;33.23;;
69614;Laerm;57159;52.472;4.750;2023-03-23T00:27:55;32.40;31.26;33.39;;
69614;Laerm;57159;52.472;4.750;2023-03-23T00:28:06;32.41;31.45;33.52;;
69614;Laerm;57159;52.472;4.750;2023-03-23T00:28:17;32.42;31.29;33.27;;
69614;Laerm;57159;52.472;4.750;2023-03-23T00:28:27;32.41;31.49;33.36;;
69614;Laerm;57159;52.472;4.750;2023-03-23T00:28:37;32.42;31.38;33.31;;
69614;Laerm;57159;52.472;4.750;2023-03-23T00:28:49;32.40;31.23;33.30;;
69614;Laerm;57159;52.472;4.750;2023-03-23T00:29:02;32.39;31.49;33.23;;
69614;Laerm;57159;52.472;4.750;2023-03-23T00:29:17;32.39;31.48;33.31;;
69614;Laerm;57159;52.472;4.750;2023-03-23T00:29:28;32.41;31.55;33.42;;
69614;Laerm;57159;52.472;4.750;2023-03-23T00:29:39;32.38;31.40;33.29;;
69614;Laerm;57159;52.472;4.750;2023-03-23T00:29:50;32.42;31.55;33.38;;
69614;Laerm;57159;52.472;4.750;2023-03-23T00:30:04;32.41;31.53;33.37;;
69614;Laerm;57159;52.472;4.750;2023-03-23T00:30:15;32.38;31.46;33.24;;
69614;Laerm;57159;52.472;4.750;2023-03-23T00:30:26;32.41;31.24;33.41;;
69614;Laerm;57159;52.472;4.750;2023-03-23T00:30:36;32.43;31.47;33.32;;
69614;Laerm;57159;52.472;4.750;2023-03-23T00:30:47;32.42;31.62;33.27;;
69614;Laerm;57159;52.472;4.750;2023-03-23T00:31:01;32.43;31.65;33.25;;
69614;Laerm;57159;52.472;4.750;2023-03-23T00:31:12;32.39;31.43;33.38;;
69614;Laerm;57159;52.472;4.750;2023-03-23T00:31:23;32.41;31.42;33.37;;
69614;Laerm;57159;52.472;4.750;2023-03-23T00:31:33;32.41;31.62;33.19;;
69614;Laerm;57159;52.472;4.750;2023-03-23T00:31:45;32.42;31.40;33.61;;
69614;Laerm;57159;52.472;4.750;2023-03-23T00:31:57;32.43;31.05;33.38;;
69614;Laerm;57159;52.472;4.750;2023-03-23T00:32:07;32.42;31.56;33.37;;
69614;Laerm;57159;52.472;4.750;2023-03-23T00:32:23;32.45;31.46;33.50;;
69614;Laerm;57159;52.472;4.750;2023-03-23T00:32:37;32.45;31.39;33.54;;
69614;Laerm;57159;52.472;4.750;2023-03-23T00:32:47;32.37;31.50;33.40;;
69614;Laerm;57159;52.472;4.750;2023-03-23T00:32:58;32.40;31.46;33.41;;
69614;Laerm;57159;52.472;4.750;2023-03-23T00:33:09;32.45;31.48;33.25;;
69614;Laerm;57159;52.472;4.750;2023-03-23T00:33:24;32.43;31.24;33.21;;
69614;Laerm;57159;52.472;4.750;2023-03-23T00:33:36;32.43;31.23;33.45;;
69614;Laerm;57159;52.472;4.750;2023-03-23T00:33:53;32.44;31.48;33.36;;
69614;Laerm;57159;52.472;4.750;2023-03-23T00:34:04;32.47;31.45;33.40;;
69614;Laerm;57159;52.472;4.750;2023-03-23T00:34:18;32.46;31.41;33.49;;
69614;Laerm;57159;52.472;4.750;2023-03-23T00:34:29;32.47;31.29;33.64;;
69614;Laerm;57159;52.472;4.750;2023-03-23T00:34:42;32.45;31.44;33.62;;
69614;Laerm;57159;52.472;4.750;2023-03-23T00:34:54;32.47;31.65;33.38;;
69614;Laerm;57159;52.472;4.750;2023-03-23T00:35:05;32.44;31.42;33.31;;
69614;Laerm;57159;52.472;4.750;2023-03-23T00:35:16;32.42;31.62;33.23;;
69614;Laerm;57159;52.472;4.750;2023-03-23T00:35:27;32.47;31.49;33.45;;
69614;Laerm;57159;52.472;4.750;2023-03-23T00:35:38;32.47;31.57;33.35;;
69614;Laerm;57159;52.472;4.750;2023-03-23T00:35:50;32.50;31.40;33.60;;
69614;Laerm;57159;52.472;4.750;2023-03-23T00:36:02;32.46;31.50;33.37;;
69614;Laerm;57159;52.472;4.750;2023-03-23T00:36:13;32.44;31.41;33.59;;
69614;Laerm;57159;52.472;4.750;2023-03-23T00:36:24;32.45;31.48;33.59;;
69614;Laerm;57159;52.472;4.750;2023-03-23T00:36:34;32.45;31.52;33.32;;
69614;Laerm;57159;52.472;4.750;2023-03-23T00:36:49;32.51;31.62;33.44;;
69614;Laerm;57159;52.472;4.750;2023-03-23T00:36:59;32.44;31.32;33.66;;
69614;Laerm;57159;52.472;4.750;2023-03-23T00:37:10;32.46;31.44;33.31;;
69614;Laerm;57159;52.472;4.750;2023-03-23T00:37:20;32.45;31.39;33.23;;
69614;Laerm;57159;52.472;4.750;2023-03-23T00:37:31;32.48;31.63;33.46;;
69614;Laerm;57159;52.472;4.750;2023-03-23T00:37:41;32.50;31.70;33.66;;
69614;Laerm;57159;52.472;4.750;2023-03-23T00:37:51;32.50;31.55;33.33;;
69614;Laerm;57159;52.472;4.750;2023-03-23T00:38:02;32.49;31.54;33.44;;
69614;Laerm;57159;52.472;4.750;2023-03-23T00:38:12;32.48;31.68;33.17;;
69614;Laerm;57159;52.472;4.750;2023-03-23T00:38:23;32.48;31.63;33.48;;
69614;Laerm;57159;52.472;4.750;2023-03-23T00:38:33;32.44;31.50;33.46;;
69614;Laerm;57159;52.472;4.750;2023-03-23T00:38:44;32.47;31.35;33.29;;
69614;Laerm;57159;52.472;4.750;2023-03-23T00:38:57;32.46;31.41;33.23;;
69614;Laerm;57159;52.472;4.750;2023-03-23T00:39:11;32.46;31.54;33.43;;
69614;Laerm;57159;52.472;4.750;2023-03-23T00:39:22;32.47;31.39;33.25;;
69614;Laerm;57159;52.472;4.750;2023-03-23T00:39:34;32.48;31.50;33.56;;
69614;Laerm;57159;52.472;4.750;2023-03-23T00:39:46;32.47;31.36;33.44;;
69614;Laerm;57159;52.472;4.750;2023-03-23T00:39:57;32.50;31.30;33.77;;
69614;Laerm;57159;52.472;4.750;2023-03-23T00:40:07;32.48;31.51;33.35;;
69614;Laerm;57159;52.472;4.750;2023-03-23T00:40:20;32.46;31.18;33.50;;
69614;Laerm;57159;52.472;4.750;2023-03-23T00:40:30;32.49;31.54;33.28;;
69614;Laerm;57159;52.472;4.750;2023-03-23T00:40:40;32.49;31.47;33.44;;
69614;Laerm;57159;52.472;4.750;2023-03-23T00:40:51;32.49;31.47;33.52;;
69614;Laerm;57159;52.472;4.750;2023-03-23T00:41:01;32.46;31.44;33.38;;
69614;Laerm;57159;52.472;4.750;2023-03-23T00:41:15;32.46;31.52;33.36;;
69614;Laerm;57159;52.472;4.750;2023-03-23T00:41:26;32.46;31.24;33.58;;
69614;Laerm;57159;52.472;4.750;2023-03-23T00:41:36;32.46;31.25;33.42;;
69614;Laerm;57159;52.472;4.750;2023-03-23T00:41:48;32.50;31.29;33.46;;
69614;Laerm;57159;52.472;4.750;2023-03-23T00:41:59;32.48;31.40;33.57;;
69614;Laerm;57159;52.472;4.750;2023-03-23T00:42:15;32.48;31.16;33.73;;
69614;Laerm;57159;52.472;4.750;2023-03-23T00:42:26;32.48;31.47;33.41;;
69614;Laerm;57159;52.472;4.750;2023-03-23T00:42:38;32.51;31.47;33.41;;
69614;Laerm;57159;52.472;4.750;2023-03-23T00:42:48;32.48;31.51;33.51;;
69614;Laerm;57159;52.472;4.750;2023-03-23T00:43:00;32.50;31.61;33.33;;
69614;Laerm;57159;52.472;4.750;2023-03-23T00:43:16;32.50;31.35;33.45;;
69614;Laerm;57159;52.472;4.750;2023-03-23T00:43:27;32.49;31.48;33.34;;
69614;Laerm;57159;52.472;4.750;2023-03-23T00:43:38;32.51;31.44;33.28;;
69614;Laerm;57159;52.472;4.750;2023-03-23T00:43:49;32.47;31.47;33.56;;
69614;Laerm;57159;52.472;4.750;2023-03-23T00:44:01;32.50;31.57;33.24;;
69614;Laerm;57159;52.472;4.750;2023-03-23T00:44:12;32.51;31.56;33.69;;
69614;Laerm;57159;52.472;4.750;2023-03-23T00:44:29;32.50;31.29;33.39;;
69614;Laerm;57159;52.472;4.750;2023-03-23T00:44:40;32.49;31.60;33.44;;
69614;Laerm;57159;52.472;4.750;2023-03-23T00:44:50;32.46;31.57;33.44;;
69614;Laerm;57159;52.472;4.750;2023-03-23T00:45:04;32.48;31.45;33.45;;
69614;Laerm;57159;52.472;4.750;2023-03-23T00:45:20;32.52;31.69;33.40;;
69614;Laerm;57159;52.472;4.750;2023-03-23T00:45:31;32.52;31.60;33.64;;
69614;Laerm;57159;52.472;4.750;2023-03-23T00:45:45;32.50;31.53;33.52;;
69614;Laerm;57159;52.472;4.750;2023-03-23T00:46:03;32.51;31.71;33.49;;
69614;Laerm;57159;52.472;4.750;2023-03-23T00:46:19;32.50;31.40;33.50;;
69614;Laerm;57159;52.472;4.750;2023-03-23T00:46:30;32.48;31.57;33.45;;
69614;Laerm;57159;52.472;4.750;2023-03-23T00:46:41;32.50;31.40;33.69;;
69614;Laerm;57159;52.472;4.750;2023-03-23T00:46:54;32.51;31.61;33.59;;
69614;Laerm;57159;52.472;4.750;2023-03-23T00:47:06;32.51;31.64;33.38;;
69614;Laerm;57159;52.472;4.750;2023-03-23T00:47:18;32.50;31.52;33.38;;
69614;Laerm;57159;52.472;4.750;2023-03-23T00:47:29;32.51;31.68;33.42;;
69614;Laerm;57159;52.472;4.750;2023-03-23T00:47:40;32.47;31.51;33.56;;
69614;Laerm;57159;52.472;4.750;2023-03-23T00:47:56;32.48;31.41;33.42;;
69614;Laerm;57159;52.472;4.750;2023-03-23T00:48:11;32.48;31.49;33.70;;
69614;Laerm;57159;52.472;4.750;2023-03-23T00:48:25;32.50;31.60;33.89;;
69614;Laerm;57159;52.472;4.750;2023-03-23T00:48:36;32.49;31.52;33.55;;
69614;Laerm;57159;52.472;4.750;2023-03-23T00:48:46;32.57;31.47;33.33;;
69614;Laerm;57159;52.472;4.750;2023-03-23T00:48:57;32.52;31.38;33.47;;
69614;Laerm;57159;52.472;4.750;2023-03-23T00:49:07;32.55;31.37;33.42;;
69614;Laerm;57159;52.472;4.750;2023-03-23T00:49:20;32.48;31.19;33.22;;
69614;Laerm;57159;52.472;4.750;2023-03-23T00:49:34;32.49;31.53;33.56;;
69614;Laerm;57159;52.472;4.750;2023-03-23T00:49:44;32.56;31.48;38.38;;
69614;Laerm;57159;52.472;4.750;2023-03-23T00:49:55;32.53;31.47;33.48;;
69614;Laerm;57159;52.472;4.750;2023-03-23T00:50:06;32.54;31.51;33.47;;
69614;Laerm;57159;52.472;4.750;2023-03-23T00:50:17;32.54;31.43;33.54;;
69614;Laerm;57159;52.472;4.750;2023-03-23T00:50:28;32.55;31.78;33.85;;
69614;Laerm;57159;52.472;4.750;2023-03-23T00:50:39;32.55;31.55;33.57;;
69614;Laerm;57159;52.472;4.750;2023-03-23T00:50:50;32.60;31.61;33.47;;
69614;Laerm;57159;52.472;4.750;2023-03-23T00:51:02;32.57;31.56;33.42;;
69614;Laerm;57159;52.472;4.750;2023-03-23T00:51:16;32.58;31.49;33.67;;
69614;Laerm;57159;52.472;4.750;2023-03-23T00:51:27;32.61;31.75;33.77;;
69614;Laerm;57159;52.472;4.750;2023-03-23T00:51:38;32.58;31.61;33.63;;
69614;Laerm;57159;52.472;4.750;2023-03-23T00:51:49;32.57;31.59;33.50;;
69614;Laerm;57159;52.472;4.750;2023-03-23T00:51:59;32.58;31.74;33.58;;
69614;Laerm;57159;52.472;4.750;2023-03-23T00:52:09;32.55;31.73;33.50;;
69614;Laerm;57159;52.472;4.750;2023-03-23T00:52:20;32.59;31.71;33.67;;
69614;Laerm;57159;52.472;4.750;2023-03-23T00:52:31;32.57;31.60;33.49;;
69614;Laerm;57159;52.472;4.750;2023-03-23T00:52:41;32.58;31.52;33.58;;
69614;Laerm;57159;52.472;4.750;2023-03-23T00:52:51;32.60;31.78;33.58;;
69614;Laerm;57159;52.472;4.750;2023-03-23T00:53:02;32.62;31.50;33.60;;
69614;Laerm;57159;52.472;4.750;2023-03-23T00:53:13;32.69;31.72;33.67;;
69614;Laerm;57159;52.472;4.750;2023-03-23T00:53:23;32.68;31.70;34.01;;
69614;Laerm;57159;52.472;4.750;2023-03-23T00:53:33;32.71;31.80;33.64;;
69614;Laerm;57159;52.472;4.750;2023-03-23T00:53:44;32.74;31.82;33.59;;
69614;Laerm;57159;52.472;4.750;2023-03-23T00:53:55;32.79;31.85;33.70;;
69614;Laerm;57159;52.472;4.750;2023-03-23T00:54:05;32.75;31.85;33.83;;
69614;Laerm;57159;52.472;4.750;2023-03-23T00:54:16;32.76;31.92;33.97;;
69614;Laerm;57159;52.472;4.750;2023-03-23T00:54:26;32.75;31.79;33.74;;
69614;Laerm;57159;52.472;4.750;2023-03-23T00:54:37;32.78;31.87;34.25;;
69614;Laerm;57159;52.472;4.750;2023-03-23T00:54:47;32.79;31.67;33.61;;
69614;Laerm;57159;52.472;4.750;2023-03-23T00:54:58;32.74;31.80;33.68;;
69614;Laerm;57159;52.472;4.750;2023-03-23T00:55:08;32.84;31.67;37.63;;
69614;Laerm;57159;52.472;4.750;2023-03-23T00:55:18;32.73;31.82;34.50;;
69614;Laerm;57159;52.472;4.750;2023-03-23T00:55:29;32.74;31.76;33.71;;
69614;Laerm;57159;52.472;4.750;2023-03-23T00:55:41;32.73;31.73;33.76;;
69614;Laerm;57159;52.472;4.750;2023-03-23T00:55:51;32.81;31.73;33.80;;
69614;Laerm;57159;52.472;4.750;2023-03-23T00:56:02;32.78;31.94;33.64;;
69614;Laerm;57159;52.472;4.750;2023-03-23T00:56:12;32.77;31.98;33.76;;
69614;Laerm;57159;52.472;4.750;2023-03-23T00:56:23;32.78;31.63;33.72;;
69614;Laerm;57159;52.472;4.750;2023-03-23T00:56:34;32.77;31.70;33.97;;
69614;Laerm;57159;52.472;4.750;2023-03-23T00:56:44;32.84;31.88;33.94;;
69614;Laerm;57159;52.472;4.750;2023-03-23T00:56:55;32.71;31.70;33.71;;
69614;Laerm;57159;52.472;4.750;2023-03-23T00:57:05;32.73;31.66;33.98;;
69614;Laerm;57159;52.472;4.750;2023-03-23T00:57:16;32.73;31.88;33.53;;
69614;Laerm;57159;52.472;4.750;2023-03-23T00:57:27;32.76;31.97;33.75;;
69614;Laerm;57159;52.472;4.750;2023-03-23T00:57:37;32.77;31.79;33.64;;
69614;Laerm;57159;52.472;4.750;2023-03-23T00:57:47;32.72;31.60;33.64;;
69614;Laerm;57159;52.472;4.750;2023-03-23T00:58:00;32.73;31.85;33.56;;
69614;Laerm;57159;52.472;4.750;2023-03-23T00:58:10;32.69;31.34;33.53;;
69614;Laerm;57159;52.472;4.750;2023-03-23T00:58:21;32.71;31.76;33.79;;
69614;Laerm;57159;52.472;4.750;2023-03-23T00:58:31;32.78;31.81;34.02;;
69614;Laerm;57159;52.472;4.750;2023-03-23T00:58:41;32.70;31.74;33.57;;
69614;Laerm;57159;52.472;4.750;2023-03-23T00:58:52;32.68;31.65;33.80;;
69614;Laerm;57159;52.472;4.750;2023-03-23T00:59:02;32.71;31.49;33.59;;
69614;Laerm;57159;52.472;4.750;2023-03-23T00:59:13;32.65;31.62;33.62;;
69614;Laerm;57159;52.472;4.750;2023-03-23T00:59:23;32.71;31.90;33.88;;
69614;Laerm;57159;52.472;4.750;2023-03-23T00:59:34;32.63;31.76;33.51;;
69614;Laerm;57159;52.472;4.750;2023-03-23T00:59:44;32.65;31.59;33.37;;
69614;Laerm;57159;52.472;4.750;2023-03-23T00:59:55;32.68;31.80;33.63;;
69614;Laerm;57159;52.472;4.750;2023-03-23T01:00:05;32.65;31.77;33.72;;
69614;Laerm;57159;52.472;4.750;2023-03-23T01:00:21;32.67;31.71;33.75;;
69614;Laerm;57159;52.472;4.750;2023-03-23T01:00:32;32.64;31.74;33.63;;
69614;Laerm;57159;52.472;4.750;2023-03-23T01:00:43;32.65;31.63;33.54;;
69614;Laerm;57159;52.472;4.750;2023-03-23T01:00:53;32.62;31.83;33.59;;
69614;Laerm;57159;52.472;4.750;2023-03-23T01:01:04;32.64;31.73;33.57;;
69614;Laerm;57159;52.472;4.750;2023-03-23T01:01:14;32.60;31.60;33.51;;
69614;Laerm;57159;52.472;4.750;2023-03-23T01:01:25;32.72;31.88;33.76;;
69614;Laerm;57159;52.472;4.750;2023-03-23T01:01:35;32.67;31.38;33.55;;
69614;Laerm;57159;52.472;4.750;2023-03-23T01:01:46;32.70;31.46;33.78;;
69614;Laerm;57159;52.472;4.750;2023-03-23T01:01:56;32.71;31.91;33.58;;
69614;Laerm;57159;52.472;4.750;2023-03-23T01:02:06;32.68;31.82;33.52;;
69614;Laerm;57159;52.472;4.750;2023-03-23T01:02:17;32.64;31.73;33.54;;
69614;Laerm;57159;52.472;4.750;2023-03-23T01:02:28;32.70;31.57;33.78;;
69614;Laerm;57159;52.472;4.750;2023-03-23T01:02:38;32.64;31.60;33.62;;
69614;Laerm;57159;52.472;4.750;2023-03-23T01:02:51;32.66;31.73;33.54;;
69614;Laerm;57159;52.472;4.750;2023-03-23T01:03:02;32.60;31.50;33.47;;
69614;Laerm;57159;52.472;4.750;2023-03-23T01:03:13;32.65;31.43;33.57;;
69614;Laerm;57159;52.472;4.750;2023-03-23T01:03:28;32.62;31.63;33.63;;
69614;Laerm;57159;52.472;4.750;2023-03-23T01:03:39;32.60;31.48;33.59;;
69614;Laerm;57159;52.472;4.750;2023-03-23T01:03:49;32.64;31.62;33.48;;
69614;Laerm;57159;52.472;4.750;2023-03-23T01:04:00;32.62;31.75;33.50;;
69614;Laerm;57159;52.472;4.750;2023-03-23T01:04:14;32.58;31.65;33.72;;
69614;Laerm;57159;52.472;4.750;2023-03-23T01:04:24;32.63;31.56;33.60;;
69614;Laerm;57159;52.472;4.750;2023-03-23T01:04:37;32.62;31.69;33.45;;
69614;Laerm;57159;52.472;4.750;2023-03-23T01:04:48;32.61;31.61;33.60;;
69614;Laerm;57159;52.472;4.750;2023-03-23T01:05:02;32.61;31.54;33.84;;
69614;Laerm;57159;52.472;4.750;2023-03-23T01:05:13;32.63;31.65;33.65;;
69614;Laerm;57159;52.472;4.750;2023-03-23T01:05:25;32.58;31.51;33.42;;
69614;Laerm;57159;52.472;4.750;2023-03-23T01:05:41;32.61;31.59;33.80;;